Time;durP1;ratioP1;P1;durP2;ratioP2;P2;SDS_P1;SDS_P2;PMS_P1;PMS_P2;Temp;Humidity;BMP_temperature;BMP_pressure;BME280_temperature;BME280_humidity;BME280_pressure;Samples;Min_cycle;Max_cycle;Signal;HPM_P1;HPM_P2
2021/04/18 00:02:15;;;;;;;10.70;4.85;;;;;;;8.96;47.39;102323.53;4889955;28;113546;-70
2021/04/18 00:04:46;;;;;;;6.50;4.25;;;;;;;8.97;47.12;102317.38;4893080;28;123742;-72
2021/04/18 00:07:13;;;;;;;11.40;5.30;;;;;;;8.96;47.08;102318.25;4903134;28;122792;-71
2021/04/18 00:09:43;;;;;;;13.07;4.72;;;;;;;8.94;47.30;102314.75;4897559;28;114293;-72
2021/04/18 00:12:10;;;;;;;11.52;5.43;;;;;;;8.91;47.28;102314.78;4893742;28;113550;-72
2021/04/18 00:14:40;;;;;;;8.95;4.45;;;;;;;8.90;47.45;102310.41;4894894;28;123834;-71
2021/04/18 00:17:06;;;;;;;10.15;4.82;;;;;;;8.88;47.19;102304.28;4903813;28;123589;-73
2021/04/18 00:19:34;;;;;;;12.18;5.45;;;;;;;8.86;47.26;102300.78;4914296;28;115362;-71
2021/04/18 00:22:03;;;;;;;14.88;4.97;;;;;;;8.84;47.48;102303.44;4897051;28;115232;-71
2021/04/18 00:24:31;;;;;;;8.52;4.93;;;;;;;8.83;47.57;102306.13;4908880;28;124089;-71
2021/04/18 00:26:58;;;;;;;11.10;5.45;;;;;;;8.82;47.64;102304.38;4893615;28;124655;-71
2021/04/18 00:29:25;;;;;;;11.00;4.97;;;;;;;8.82;47.61;102304.38;4895060;28;114716;-71
2021/04/18 00:31:53;;;;;;;9.07;4.95;;;;;;;8.81;47.70;102306.13;4907302;28;115500;-72
2021/04/18 00:34:20;;;;;;;13.13;4.85;;;;;;;8.81;47.70;102308.78;4887106;28;124119;-72
2021/04/18 00:36:47;;;;;;;8.73;5.38;;;;;;;8.82;47.91;102304.38;4912458;28;123323;-72
2021/04/18 00:39:15;;;;;;;8.70;4.90;;;;;;;8.81;47.75;102302.63;4911625;28;113339;-71
2021/04/18 00:41:42;;;;;;;11.20;4.93;;;;;;;8.81;47.67;102307.91;4913914;28;113819;-71
2021/04/18 00:44:11;;;;;;;9.27;4.82;;;;;;;8.80;47.81;102300.84;4912407;28;124778;-72
2021/04/18 00:46:39;;;;;;;10.32;5.10;;;;;;;8.79;47.84;102299.13;4895283;28;124139;-70
2021/04/18 00:49:07;;;;;;;15.00;5.80;;;;;;;8.77;47.68;102302.66;4912742;28;113712;-71
2021/04/18 00:51:35;;;;;;;8.38;5.13;;;;;;;8.75;47.79;102304.44;4913456;28;114228;-72
2021/04/18 00:54:02;;;;;;;9.77;5.25;;;;;;;8.73;47.59;102295.66;4912933;28;124500;-72
2021/04/18 00:56:29;;;;;;;11.35;5.38;;;;;;;8.73;47.78;102306.25;4895404;28;122992;-70
2021/04/18 00:58:56;;;;;;;9.05;4.80;;;;;;;8.72;47.79;102304.50;4893027;28;114556;-72
2021/04/18 01:01:23;;;;;;;11.35;5.32;;;;;;;8.71;48.08;102302.75;4893226;28;114078;-73
2021/04/18 01:03:52;;;;;;;10.27;5.22;;;;;;;8.70;48.08;102303.66;4881442;28;123493;-71
2021/04/18 01:06:18;;;;;;;10.48;5.25;;;;;;;8.68;47.84;102300.16;4899588;28;123189;-72
2021/04/18 01:08:46;;;;;;;14.38;5.40;;;;;;;8.66;47.86;102304.56;4895717;28;115472;-70
2021/04/18 01:11:12;;;;;;;9.80;4.70;;;;;;;8.64;47.66;102305.50;4879966;28;114547;-72
2021/04/18 01:13:40;;;;;;;12.43;5.57;;;;;;;8.61;47.70;102295.84;4887255;28;123363;-71
2021/04/18 01:16:08;;;;;;;13.95;5.97;;;;;;;8.57;47.49;102294.16;4879610;28;123403;-71
2021/04/18 01:18:35;;;;;;;11.55;5.80;;;;;;;8.53;48.00;102287.13;4903580;28;113791;-73
2021/04/18 01:21:12;;;;;;;11.68;5.18;;;;;;;8.47;48.00;102295.16;4894054;28;113339;-72
2021/04/18 01:24:12;;;;;;;11.35;5.30;;;;;;;8.38;47.88;102294.34;4874745;28;123545;-72
2021/04/18 01:26:50;;;;;;;11.20;5.32;;;;;;;8.33;48.09;102293.53;4911745;28;123968;-71
2021/04/18 01:29:17;;;;;;;13.63;5.68;;;;;;;8.30;48.59;102293.56;4898487;28;114210;-73
2021/04/18 01:31:46;;;;;;;14.20;5.60;;;;;;;8.27;48.51;102290.97;4910536;28;113386;-72
2021/04/18 01:34:14;;;;;;;10.75;5.15;;;;;;;8.25;48.62;102287.47;4905242;28;122939;-72
2021/04/18 01:36:45;;;;;;;9.30;5.20;;;;;;;8.24;48.48;102285.72;4891824;28;123739;-72
2021/04/18 01:39:14;;;;;;;14.35;5.78;;;;;;;8.22;48.58;102282.22;4890730;28;113711;-72
2021/04/18 01:41:42;;;;;;;11.13;5.40;;;;;;;8.21;48.65;102280.47;4900760;28;113805;-72
2021/04/18 01:44:12;;;;;;;11.68;6.00;;;;;;;8.20;48.80;102278.72;4911338;28;123635;-72
2021/04/18 01:46:45;;;;;;;11.95;5.78;;;;;;;8.18;48.67;102280.53;4885793;28;123358;-72
2021/04/18 01:49:13;;;;;;;12.63;5.43;;;;;;;8.17;48.54;102278.75;4908754;28;113667;-72
2021/04/18 01:51:40;;;;;;;13.15;5.60;;;;;;;8.13;48.59;102270.00;4894028;28;113971;-73
2021/04/18 01:54:07;;;;;;;15.77;6.32;;;;;;;8.10;48.92;102272.69;4891247;28;123583;-72
2021/04/18 01:56:34;;;;;;;10.98;5.68;;;;;;;8.08;49.12;102273.59;4893679;28;123049;-73
2021/04/18 01:59:02;;;;;;;11.13;5.75;;;;;;;8.06;49.29;102259.53;4890988;28;114440;-71
2021/04/18 02:02:08;;;;;;;11.97;5.47;;;;;;;8.03;49.24;102265.75;4850342;28;115160;-72
2021/04/18 02:04:39;;;;;;;13.70;5.50;;;;;;;8.03;49.35;102262.25;4891334;28;123243;-72
2021/04/18 02:07:08;;;;;;;12.95;6.25;;;;;;;7.99;49.36;102259.63;4897187;28;124240;-72
2021/04/18 02:09:36;;;;;;;14.93;6.40;;;;;;;7.98;49.32;102257.00;4891021;28;113290;-72
2021/04/18 02:12:09;;;;;;;14.38;6.00;;;;;;;7.96;49.28;102254.38;4893581;28;113587;-73
2021/04/18 02:14:39;;;;;;;13.18;5.95;;;;;;;7.95;49.67;102257.91;4892616;28;124577;-72
2021/04/18 02:17:11;;;;;;;12.00;6.28;;;;;;;7.95;49.42;102252.63;4896997;28;124022;-72
2021/04/18 02:19:38;;;;;;;12.82;5.85;;;;;;;7.95;49.55;102257.91;4902031;28;115173;-72
2021/04/18 02:22:06;;;;;;;14.30;5.85;;;;;;;7.95;49.60;102268.47;4888452;28;113443;-71
2021/04/18 02:24:38;;;;;;;12.05;5.88;;;;;;;7.93;49.36;102259.69;4882359;28;124191;-72
2021/04/18 02:27:07;;;;;;;13.18;6.38;;;;;;;7.92;49.43;102257.94;4906469;28;124008;-72
2021/04/18 02:29:40;;;;;;;11.30;5.72;;;;;;;7.91;49.73;102261.47;4911140;28;113427;-72
2021/04/18 02:32:12;;;;;;;14.27;6.30;;;;;;;7.91;49.70;102256.22;4892884;28;112928;-71
2021/04/18 02:34:48;;;;;;;;;;;;;;;7.87;49.00;102259.75;4901204;28;124014;-72
2021/04/18 02:37:16;;;;;;;12.05;5.90;;;;;;;7.88;49.19;102250.94;4894451;28;123361;-72
2021/04/18 02:39:43;;;;;;;12.95;5.72;;;;;;;7.87;49.53;102254.47;4891120;28;113964;-72
2021/04/18 02:42:10;;;;;;;11.43;6.10;;;;;;;7.85;49.55;102256.25;4893144;28;114177;-72
2021/04/18 02:44:36;;;;;;;14.80;6.00;;;;;;;7.85;49.63;102252.75;4872593;28;123176;-71
2021/04/18 02:47:04;;;;;;;21.10;6.57;;;;;;;7.84;49.66;102254.53;4917912;23;123808;-73
2021/04/18 02:49:33;;;;;;;12.15;5.75;;;;;;;7.82;49.88;102258.94;4913756;28;114577;-73
2021/04/18 02:52:00;;;;;;;13.15;5.72;;;;;;;7.79;49.61;102256.31;4922400;28;114697;-73
2021/04/18 02:54:27;;;;;;;15.50;5.90;;;;;;;7.78;49.89;102254.59;4936196;28;123810;-73
2021/04/18 02:56:58;;;;;;;12.63;5.80;;;;;;;7.74;49.78;102253.75;4918385;28;124046;-73
2021/04/18 02:59:25;;;;;;;16.92;6.43;;;;;;;7.74;50.00;102259.03;4912501;28;114756;-73
2021/04/18 03:01:53;;;;;;;11.07;5.65;;;;;;;7.72;50.13;102259.91;4906284;28;114549;-73
2021/04/18 03:04:20;;;;;;;12.55;6.60;;;;;;;7.70;50.31;102261.69;4909762;28;123177;-73
2021/04/18 03:06:49;;;;;;;14.73;6.63;;;;;;;7.67;50.11;102261.75;4898943;28;122522;-73
2021/04/18 03:09:15;;;;;;;16.08;6.40;;;;;;;7.65;50.44;102268.78;4912283;28;114109;-73
2021/04/18 03:11:48;;;;;;;12.20;6.93;;;;;;;7.60;50.53;102256.50;4895710;28;114153;-73
2021/04/18 03:14:26;;;;;;;13.10;6.03;;;;;;;7.57;50.26;102251.28;4910754;28;124214;-72
2021/04/18 03:16:53;;;;;;;14.80;6.38;;;;;;;7.55;50.71;102258.34;4908497;28;123986;-73
2021/04/18 03:19:24;;;;;;;15.90;6.40;;;;;;;7.53;50.58;102249.53;4888117;28;113808;-72
2021/04/18 03:21:57;;;;;;;16.48;6.68;;;;;;;7.50;50.38;102249.59;4895809;28;113730;-72
2021/04/18 03:24:24;;;;;;;12.43;6.32;;;;;;;7.48;50.28;102251.38;4914737;28;124462;-72
2021/04/18 03:26:51;;;;;;;12.15;6.80;;;;;;;7.45;50.54;102246.13;4912080;28;124067;-72
2021/04/18 03:29:19;;;;;;;15.20;7.10;;;;;;;7.43;50.42;102247.91;4897647;28;113907;-72
2021/04/18 03:31:46;;;;;;;17.27;6.72;;;;;;;7.41;50.77;102250.53;4913401;28;113269;-72
2021/04/18 03:34:13;;;;;;;13.30;6.53;;;;;;;7.39;50.67;102236.50;4911824;28;124192;-72
2021/04/18 03:36:42;;;;;;;12.48;6.60;;;;;;;7.38;50.68;102239.16;4898044;28;123546;-72
2021/04/18 03:39:15;;;;;;;19.35;7.45;;;;;;;7.37;51.08;102242.69;4895196;28;115102;-72
2021/04/18 03:41:45;;;;;;;13.63;6.70;;;;;;;7.37;51.00;102237.41;4896557;28;114576;-72
2021/04/18 03:44:12;;;;;;;16.73;7.15;;;;;;;7.37;51.19;102237.41;4890151;28;123949;-73
2021/04/18 03:46:39;;;;;;;14.68;6.43;;;;;;;7.35;51.05;102233.94;4896290;28;124064;-72
2021/04/18 03:49:08;;;;;;;16.45;6.88;;;;;;;7.34;51.35;102237.44;4882400;28;113834;-72
2021/04/18 03:51:50;;;;;;;15.68;7.05;;;;;;;7.33;51.05;102240.97;4911458;28;113747;-74
2021/04/18 03:54:19;;;;;;;12.50;6.60;;;;;;;7.32;50.97;102244.47;4916338;28;124027;-74
2021/04/18 03:56:47;;;;;;;12.25;6.63;;;;;;;7.30;51.24;102241.84;4918459;28;123299;-74
2021/04/18 03:59:14;;;;;;;16.27;6.90;;;;;;;7.28;51.27;102237.50;4917520;28;112778;-74
2021/04/18 04:01:42;;;;;;;19.15;7.25;;;;;;;7.27;51.28;102241.00;4906671;28;113319;-75
2021/04/18 04:04:12;;;;;;;17.75;7.32;;;;;;;7.24;51.02;102241.06;4913467;28;122769;-74
2021/04/18 04:06:43;;;;;;;13.98;6.75;;;;;;;7.24;51.06;102241.06;4919132;28;123380;-75
2021/04/18 04:09:10;;;;;;;17.65;7.30;;;;;;;7.22;51.54;102244.56;4919743;28;113256;-75
2021/04/18 04:11:38;;;;;;;15.05;6.97;;;;;;;7.20;51.54;102241.06;4914973;28;114482;-74
2021/04/18 04:14:08;;;;;;;17.63;7.25;;;;;;;7.19;51.79;102244.56;4897628;28;124317;-75
2021/04/18 04:16:42;;;;;;;17.40;6.60;;;;;;;7.19;51.46;102234.03;4896268;28;122820;-75
2021/04/18 04:19:11;;;;;;;13.88;6.90;;;;;;;7.20;51.67;102245.47;4897941;28;113854;-74
2021/04/18 04:21:56;;;;;;;14.07;7.20;;;;;;;7.19;51.52;102249.84;4896952;28;114941;-75
2021/04/18 04:24:31;;;;;;;16.93;6.87;;;;;;;7.18;51.65;102242.84;4886751;28;124262;-74
2021/04/18 04:26:58;;;;;;;14.57;6.75;;;;;;;7.18;51.53;102248.13;4913615;28;124669;-74
2021/04/18 04:29:25;;;;;;;15.38;6.78;;;;;;;7.18;51.64;102242.84;4909285;28;115073;-74
2021/04/18 04:31:51;;;;;;;17.88;6.93;;;;;;;7.17;51.86;102246.34;4880350;28;114181;-75
2021/04/18 04:34:18;;;;;;;16.45;7.13;;;;;;;7.17;51.99;102251.63;4907815;28;124916;-75
2021/04/18 04:36:45;;;;;;;15.23;7.00;;;;;;;7.16;51.87;102249.88;4911608;28;123799;-74
2021/04/18 04:39:12;;;;;;;13.00;6.82;;;;;;;7.16;51.67;102244.63;4896372;28;113645;-74
2021/04/18 04:41:38;;;;;;;14.82;6.53;;;;;;;7.14;51.68;102251.66;4894505;28;114066;-74
2021/04/18 04:44:08;;;;;;;14.52;6.57;;;;;;;7.13;51.77;102254.31;4894928;28;124180;-75
2021/04/18 04:46:35;;;;;;;14.45;7.10;;;;;;;7.12;51.85;102252.53;4894165;28;126438;-75
2021/04/18 04:49:02;;;;;;;12.98;6.30;;;;;;;7.12;51.76;102252.53;4879532;28;113225;-75
2021/04/18 04:51:28;;;;;;;14.77;6.88;;;;;;;7.11;51.94;102256.94;4912485;28;114085;-75
2021/04/18 04:53:55;;;;;;;14.30;7.28;;;;;;;7.09;52.01;102258.72;4913317;28;124385;-75
2021/04/18 04:56:21;;;;;;;16.15;7.25;;;;;;;7.09;51.90;102264.00;4910665;28;123890;-75
2021/04/18 04:58:48;;;;;;;12.95;6.68;;;;;;;7.08;52.20;102262.22;4876329;28;113714;-75
2021/04/18 05:01:14;;;;;;;13.75;6.82;;;;;;;7.06;52.23;102264.00;4899799;28;113862;-75
2021/04/18 05:03:41;;;;;;;15.55;6.47;;;;;;;7.08;52.28;102266.63;4898789;28;122990;-75
2021/04/18 05:06:09;;;;;;;13.55;7.05;;;;;;;7.06;52.17;102264.00;4903670;28;124622;-75
2021/04/18 05:08:35;;;;;;;18.48;7.43;;;;;;;7.06;52.22;102263.13;4922630;28;114076;-75
2021/04/18 05:11:02;;;;;;;14.02;6.93;;;;;;;7.04;52.25;102271.03;4897165;28;112836;-75
2021/04/18 05:13:29;;;;;;;17.90;7.60;;;;;;;7.02;52.10;102273.69;4914055;28;123497;-75
2021/04/18 05:15:56;;;;;;;13.30;6.80;;;;;;;7.03;52.19;102271.94;4913611;28;124239;-75
2021/04/18 05:18:22;;;;;;;15.48;7.38;;;;;;;7.02;52.18;102273.69;4915648;28;116262;-75
2021/04/18 05:20:50;;;;;;;13.93;7.00;;;;;;;7.04;52.32;102265.78;4920323;28;115223;-75
2021/04/18 05:23:16;;;;;;;16.83;7.22;;;;;;;7.04;52.15;102271.03;4906026;28;124681;-75
2021/04/18 05:25:43;;;;;;;15.25;6.93;;;;;;;7.04;52.36;102271.03;4906400;28;123463;-75
2021/04/18 05:28:09;;;;;;;17.38;7.57;;;;;;;7.05;52.61;102275.44;4907699;28;114519;-75
2021/04/18 05:30:36;;;;;;;15.90;6.97;;;;;;;7.07;52.45;102281.56;4892035;28;113370;-75
2021/04/18 05:33:07;;;;;;;14.02;6.68;;;;;;;7.08;52.36;102275.41;4890404;28;122191;-75
2021/04/18 05:35:34;;;;;;;13.85;7.20;;;;;;;7.08;52.28;102272.75;4913294;28;123889;-75
2021/04/18 05:38:00;;;;;;;11.95;7.13;;;;;;;7.09;52.44;102279.81;4900808;28;114126;-75
2021/04/18 05:40:27;;;;;;;16.85;7.53;;;;;;;7.11;52.79;102285.94;4883302;28;113185;-75
2021/04/18 05:42:56;;;;;;;16.55;7.50;;;;;;;7.13;52.53;102278.03;4897862;28;122507;-75
2021/04/18 05:45:22;;;;;;;15.18;7.30;;;;;;;7.15;52.88;102274.47;4916360;28;123369;-75
2021/04/18 05:47:49;;;;;;;14.55;7.68;;;;;;;7.19;52.57;102281.47;4912503;28;113679;-74
2021/04/18 05:50:16;;;;;;;18.88;7.97;;;;;;;7.21;53.00;102279.72;4909063;28;113475;-75
2021/04/18 05:52:44;;;;;;;20.25;9.13;;;;;;;7.26;52.91;102265.63;4921856;28;124302;-75
2021/04/18 05:55:11;;;;;;;15.52;8.32;;;;;;;7.28;53.08;102264.72;4922530;28;124147;-75
2021/04/18 05:57:38;;;;;;;19.85;8.88;;;;;;;7.34;53.43;102269.94;4917940;28;113454;-75
2021/04/18 06:00:06;;;;;;;20.27;9.10;;;;;;;7.38;53.63;102265.50;4907919;28;114023;-75
2021/04/18 06:02:38;;;;;;;19.02;10.20;;;;;;;7.41;53.31;102269.00;4899294;28;125345;-75
2021/04/18 06:05:06;;;;;;;18.45;10.10;;;;;;;7.47;53.52;102260.16;4913731;28;123337;-75
2021/04/18 06:07:35;;;;;;;19.38;9.95;;;;;;;7.52;53.73;102262.75;4925260;28;115316;-75
2021/04/18 06:10:04;;;;;;;16.88;9.60;;;;;;;7.56;53.51;102253.94;4920170;28;115909;-75
2021/04/18 06:12:30;;;;;;;18.33;9.85;;;;;;;7.62;53.63;102258.28;4897901;28;124486;-75
2021/04/18 06:14:57;;;;;;;18.65;9.70;;;;;;;7.68;53.92;102258.19;4906585;28;124575;-75
2021/04/18 06:17:25;;;;;;;15.23;9.40;;;;;;;7.74;54.11;102263.41;4896613;28;112279;-75
2021/04/18 06:19:52;;;;;;;23.42;10.45;;;;;;;7.81;54.39;102265.09;4914738;28;113422;-75
2021/04/18 06:22:19;;;;;;;20.88;10.20;;;;;;;7.89;54.36;102267.66;4919604;28;123953;-75
2021/04/18 06:24:46;;;;;;;19.67;10.82;;;;;;;7.97;54.40;102266.69;4915669;28;123498;-75
2021/04/18 06:27:12;;;;;;;20.65;11.27;;;;;;;8.06;54.82;102264.81;4908372;28;114672;-75
2021/04/18 06:29:39;;;;;;;19.75;10.98;;;;;;;8.17;54.88;102273.47;4899115;28;113998;-75
2021/04/18 06:32:06;;;;;;;20.90;10.63;;;;;;;8.29;55.27;102272.47;4907003;28;124261;-75
2021/04/18 06:34:36;;;;;;;26.23;10.68;;;;;;;8.44;55.35;102271.41;4893638;28;124033;-75
2021/04/18 06:37:03;;;;;;;22.65;10.93;;;;;;;8.59;55.46;102271.25;4886768;28;113389;-75
2021/04/18 06:39:30;;;;;;;19.70;11.00;;;;;;;8.76;55.67;102279.78;4914506;28;114029;-75
2021/04/18 06:42:00;;;;;;;19.75;10.98;;;;;;;8.93;55.65;102273.41;4896746;28;123416;-75
2021/04/18 06:44:28;;;;;;;24.05;10.50;;;;;;;9.09;55.61;102272.22;4895978;28;123957;-75
2021/04/18 06:46:57;;;;;;;22.80;10.95;;;;;;;9.30;55.82;102272.78;4896724;28;113604;-75
2021/04/18 06:49:25;;;;;;;19.33;10.88;;;;;;;9.50;55.59;102269.81;4914397;28;114075;-76
2021/04/18 06:51:52;;;;;;;22.13;10.70;;;;;;;9.69;55.57;102262.41;4896403;28;123567;-75
2021/04/18 06:54:19;;;;;;;18.75;10.70;;;;;;;9.87;55.54;102271.75;4892502;28;123460;-75
2021/04/18 06:56:47;;;;;;;21.13;10.52;;;;;;;10.07;55.56;102279.34;4895160;28;114646;-75
2021/04/18 06:59:14;;;;;;;19.27;10.90;;;;;;;10.26;55.54;102275.41;4904250;28;113663;-75
2021/04/18 07:01:41;;;;;;;18.50;10.43;;;;;;;10.49;55.02;102271.41;4911699;28;123668;-75
2021/04/18 07:04:18;;;;;;;19.08;10.50;;;;;;;10.65;55.15;102275.50;4898882;28;122781;-75
2021/04/18 07:06:48;;;;;;;23.40;10.50;;;;;;;10.83;54.72;102270.66;4905015;28;114446;-75
2021/04/18 07:09:19;;;;;;;21.33;10.65;;;;;;;10.96;54.57;102265.97;4878208;28;113780;-75
2021/04/18 07:11:58;;;;;;;23.85;10.27;;;;;;;11.09;54.40;102270.94;4909915;28;124679;-75
2021/04/18 07:14:26;;;;;;;18.75;10.25;;;;;;;11.26;54.24;102269.63;4897401;28;123171;-74
2021/04/18 07:17:14;;;;;;;21.35;9.77;;;;;;;11.46;54.19;102271.81;4903016;28;114177;-75
2021/04/18 07:19:49;;;;;;;19.63;10.57;;;;;;;11.61;54.08;102265.22;4895067;28;113560;-75
2021/04/18 07:22:25;;;;;;;17.75;9.65;;;;;;;11.73;53.69;102264.88;4877866;28;124003;-75
2021/04/18 07:24:55;;;;;;;17.63;8.93;;;;;;;11.84;53.70;102267.25;4876687;28;123634;-75
2021/04/18 07:27:23;;;;;;;17.35;8.82;;;;;;;11.95;53.27;102253.72;4897887;28;113926;-75
2021/04/18 07:29:55;;;;;;;20.63;8.50;;;;;;;12.08;53.09;102250.66;4911568;28;114159;-75
2021/04/18 07:32:24;;;;;;;17.52;8.70;;;;;;;12.24;52.71;102235.16;4897307;28;124631;-75
2021/04/18 07:34:52;;;;;;;16.02;8.60;;;;;;;12.40;52.54;102229.38;4896775;28;122462;-75
2021/04/18 07:37:22;;;;;;;15.77;8.07;;;;;;;12.51;51.97;102216.63;4912324;28;115448;-75
2021/04/18 07:39:56;;;;;;;18.65;8.68;;;;;;;12.60;51.67;102215.47;4895018;28;114729;-75
2021/04/18 07:42:36;;;;;;;16.63;8.93;;;;;;;12.70;51.85;102224.03;4892118;28;123961;-75
2021/04/18 07:45:12;;;;;;;18.35;9.15;;;;;;;12.82;51.96;102231.59;4911926;28;124802;-75
2021/04/18 07:47:41;;;;;;;15.48;8.25;;;;;;;12.92;51.75;102227.75;4913654;28;115592;-75
2021/04/18 07:50:11;;;;;;;19.42;8.90;;;;;;;13.01;51.19;102227.41;4898198;28;115037;-75
2021/04/18 07:52:41;;;;;;;15.88;8.80;;;;;;;13.08;50.71;102221.91;4896922;28;122932;-74
2021/04/18 07:55:09;;;;;;;16.27;10.10;;;;;;;13.04;50.82;102224.66;4915512;28;124671;-75
2021/04/18 07:57:36;;;;;;;16.13;9.82;;;;;;;13.07;50.76;102236.97;4881414;28;113298;-75
2021/04/18 08:00:04;;;;;;;21.02;10.40;;;;;;;13.11;51.00;102235.09;4897708;28;113195;-75
2021/04/18 08:02:47;;;;;;;17.80;10.13;;;;;;;13.17;50.81;102227.78;4916200;28;124753;-75
2021/04/18 08:05:15;;;;;;;19.25;10.13;;;;;;;13.26;50.90;102231.94;4897709;28;122325;-75
2021/04/18 08:08:09;;;;;;;18.98;10.57;;;;;;;13.35;50.88;102242.28;4920179;28;114435;-75
2021/04/18 08:10:41;;;;;;;15.95;9.05;;;;;;;13.47;50.82;102250.75;4877425;28;113185;-74
2021/04/18 08:13:25;;;;;;;14.50;9.80;;;;;;;13.59;50.72;102255.69;4902847;28;124762;-75
2021/04/18 08:15:52;;;;;;;14.32;9.15;;;;;;;13.71;50.12;102249.94;4896696;28;123897;-75
2021/04/18 08:18:29;;;;;;;16.23;9.38;;;;;;;13.80;50.12;102249.56;4916332;28;114329;-74
2021/04/18 08:20:57;;;;;;;13.35;7.57;;;;;;;13.89;49.31;102255.50;4890817;28;113978;-74
2021/04/18 08:23:35;;;;;;;12.65;7.63;;;;;;;13.95;49.31;102252.63;4894647;28;123884;-76
2021/04/18 08:26:06;;;;;;;13.88;7.20;;;;;;;14.03;49.37;102250.53;4912643;28;122929;-74
2021/04/18 08:28:55;;;;;;;13.52;7.05;;;;;;;14.10;49.07;102251.19;4896367;28;113811;-75
2021/04/18 08:31:23;;;;;;;12.00;6.88;;;;;;;14.18;49.09;102247.31;4871820;28;113033;-74
2021/04/18 08:33:53;;;;;;;11.50;6.63;;;;;;;14.30;48.87;102245.13;4897654;28;123007;-75
2021/04/18 08:36:22;;;;;;;9.98;6.53;;;;;;;14.39;48.70;102242.06;4893496;28;123105;-75
2021/04/18 08:39:09;;;;;;;11.60;5.90;;;;;;;14.43;48.31;102243.72;4895407;28;115007;-75
2021/04/18 08:41:43;;;;;;;10.90;6.22;;;;;;;14.48;48.29;102241.72;4907403;28;115289;-75
2021/04/18 08:44:19;;;;;;;10.25;5.60;;;;;;;14.50;47.91;102247.84;4911765;28;124511;-75
2021/04/18 08:46:48;;;;;;;12.38;6.20;;;;;;;14.53;47.43;102244.22;4927135;23;123993;-70
2021/04/18 08:49:32;;;;;;;10.88;6.32;;;;;;;14.57;47.81;102246.72;4912753;28;114005;-70
2021/04/18 08:52:08;;;;;;;9.48;5.80;;;;;;;14.68;47.98;102248.13;4932623;28;114011;-70
2021/04/18 08:54:37;;;;;;;11.88;6.47;;;;;;;14.77;48.11;102237.94;4914420;28;123680;-70
2021/04/18 08:57:19;;;;;;;9.45;5.07;;;;;;;14.88;47.18;102234.84;4924525;28;123833;-70
2021/04/18 08:59:49;;;;;;;9.45;5.55;;;;;;;15.02;47.43;102236.06;4915812;28;112326;-70
2021/04/18 09:02:15;;;;;;;8.48;5.60;;;;;;;15.10;47.17;102233.94;4928454;28;114300;-69
2021/04/18 09:04:45;;;;;;;7.88;4.20;;;;;;;15.18;46.30;102232.69;4930763;28;124114;-69
2021/04/18 09:07:17;;;;;;;9.98;6.00;;;;;;;15.26;45.82;102237.72;4902868;28;122606;-69
2021/04/18 09:09:45;;;;;;;9.25;4.43;;;;;;;15.32;45.04;102240.13;4923701;28;114509;-69
2021/04/18 09:12:13;;;;;;;10.20;5.18;;;;;;;15.35;44.72;102240.00;4913696;28;113850;-69
2021/04/18 09:14:51;;;;;;;7.25;4.50;;;;;;;15.40;44.43;102236.25;4929062;28;124794;-69
2021/04/18 09:17:25;;;;;;;7.15;4.22;;;;;;;15.47;44.52;102237.72;4913470;28;123216;-69
2021/04/18 09:20:01;;;;;;;7.07;3.63;;;;;;;15.59;44.10;102231.84;4927099;28;114293;-69
2021/04/18 09:22:30;;;;;;;7.93;4.63;;;;;;;15.71;44.21;102225.97;4893557;28;113215;-69
2021/04/18 09:25:07;;;;;;;6.15;3.40;;;;;;;15.81;43.09;102234.47;4907007;28;123128;-69
2021/04/18 09:27:39;;;;;;;4.88;3.15;;;;;;;15.88;42.61;102232.38;4900058;28;124757;-69
2021/04/18 09:30:09;;;;;;;5.75;3.47;;;;;;;15.97;42.41;102231.97;4931300;28;114187;-69
2021/04/18 09:32:36;;;;;;;6.53;3.50;;;;;;;16.08;42.28;102223.47;4931505;28;115627;-69
2021/04/18 09:35:06;;;;;;;5.90;3.42;;;;;;;16.18;42.01;102223.91;4931509;28;124422;-70
2021/04/18 09:37:38;;;;;;;8.02;3.10;;;;;;;16.24;41.76;102223.63;4912605;28;123562;-70
2021/04/18 09:40:11;;;;;;;6.00;3.58;;;;;;;16.33;41.49;102233.88;4930246;28;114073;-70
2021/04/18 09:42:43;;;;;;;7.15;3.72;;;;;;;16.42;41.42;102228.09;4930490;28;114246;-70
2021/04/18 09:45:22;;;;;;;6.20;3.90;;;;;;;16.49;41.49;102223.31;4893722;28;123527;-70
2021/04/18 09:47:54;;;;;;;5.95;3.80;;;;;;;16.58;41.70;102232.72;4910864;28;123514;-71
2021/04/18 09:50:34;;;;;;;7.38;3.58;;;;;;;16.63;41.02;102219.97;4924256;28;114081;-71
2021/04/18 09:53:24;;;;;;;5.72;3.38;;;;;;;16.67;40.42;102226.91;4912448;28;114783;-71
2021/04/18 09:55:54;;;;;;;6.82;3.40;;;;;;;16.71;40.09;102223.16;4905788;28;123901;-71
2021/04/18 09:58:28;;;;;;;5.75;3.40;;;;;;;16.74;39.68;102228.34;4906304;28;123961;-71
2021/04/18 10:00:56;;;;;;;7.13;3.60;;;;;;;16.79;39.34;102226.31;4912799;28;96959;-70
2021/04/18 10:03:37;;;;;;;6.22;3.33;;;;;;;16.84;38.97;102224.31;4908638;28;113901;-71
2021/04/18 10:06:06;;;;;;;7.85;3.70;;;;;;;16.89;39.41;102216.91;4896162;28;123150;-70
2021/04/18 10:08:35;;;;;;;5.28;3.17;;;;;;;16.93;38.78;102213.16;4918422;28;124338;-68
2021/04/18 10:11:02;;;;;;;6.07;3.78;;;;;;;16.97;38.54;102213.00;4914707;28;114983;-69
2021/04/18 10:13:51;;;;;;;5.80;3.25;;;;;;;17.00;38.44;102218.19;4883801;28;114992;-69
2021/04/18 10:16:46;;;;;;;7.00;3.90;;;;;;;17.03;38.81;102218.06;4903228;28;124527;-69
2021/04/18 10:19:15;;;;;;;6.45;3.80;;;;;;;17.06;38.14;102215.22;4892385;28;122599;-69
2021/04/18 10:22:04;;;;;;;7.60;3.80;;;;;;;17.10;38.13;102219.47;4909840;28;114993;-69
2021/04/18 10:24:47;;;;;;;6.93;3.70;;;;;;;17.11;37.99;102215.84;4903750;28;114394;-69
2021/04/18 10:27:16;;;;;;;8.70;3.90;;;;;;;17.17;37.72;102204.81;4913191;28;124682;-69
2021/04/18 10:29:43;;;;;;;8.98;4.35;;;;;;;17.24;38.30;102211.59;4907403;28;124425;-69
2021/04/18 10:32:15;;;;;;;5.85;3.88;;;;;;;17.30;38.05;102211.28;4911352;28;114012;-69
2021/04/18 10:34:42;;;;;;;6.10;4.10;;;;;;;17.36;37.71;102206.56;4900039;28;114113;-69
2021/04/18 10:37:09;;;;;;;6.97;4.85;;;;;;;17.40;38.10;102205.44;4914171;28;124457;-69
2021/04/18 10:39:36;;;;;;;5.80;4.30;;;;;;;17.45;38.02;102203.41;4894272;28;123453;-69
2021/04/18 10:42:03;;;;;;;7.68;5.10;;;;;;;17.48;38.18;102204.13;4913857;28;114439;-69
2021/04/18 10:44:29;;;;;;;8.52;5.00;;;;;;;17.53;37.91;102195.81;4915770;28;113546;-69
2021/04/18 10:46:58;;;;;;;7.40;5.47;;;;;;;17.56;37.70;102201.03;4905526;28;124115;-70
2021/04/18 10:49:26;;;;;;;8.18;4.50;;;;;;;17.60;37.41;102197.22;4908646;28;124030;-70
2021/04/18 10:51:53;;;;;;;7.18;4.57;;;;;;;17.61;37.05;102193.63;4911386;28;115098;-70
2021/04/18 10:54:20;;;;;;;7.38;4.90;;;;;;;17.60;37.46;102197.22;4894202;28;113380;-71
2021/04/18 10:56:48;;;;;;;9.15;5.30;;;;;;;17.64;37.79;102190.75;4910577;28;124313;-71
2021/04/18 10:59:15;;;;;;;8.18;5.40;;;;;;;17.70;37.96;102187.75;4915412;28;123446;-70
2021/04/18 11:01:42;;;;;;;8.02;5.10;;;;;;;17.78;37.58;102183.78;4898218;28;114552;-70
2021/04/18 11:04:10;;;;;;;11.48;4.85;;;;;;;17.82;37.70;102185.34;4913540;28;117042;-70
2021/04/18 11:06:37;;;;;;;9.73;4.93;;;;;;;17.85;36.97;102182.56;4918905;28;123994;-70
2021/04/18 11:09:05;;;;;;;8.00;4.28;;;;;;;17.88;36.32;102190.44;4916092;28;123936;-70
2021/04/18 11:11:32;;;;;;;7.15;4.03;;;;;;;17.92;36.26;102177.75;4908887;28;115221;-71
2021/04/18 11:13:59;;;;;;;7.70;3.85;;;;;;;17.98;36.46;102180.94;4911530;28;113930;-70
2021/04/18 11:16:26;;;;;;;9.07;4.22;;;;;;;18.05;36.57;102176.09;4911848;28;124101;-70
2021/04/18 11:18:53;;;;;;;8.43;4.40;;;;;;;18.12;36.44;102176.63;4912283;28;123737;-70
2021/04/18 11:21:22;;;;;;;9.70;3.85;;;;;;;18.17;36.41;102179.91;4920166;28;114778;-70
2021/04/18 11:23:50;;;;;;;5.40;3.08;;;;;;;18.21;35.48;102173.41;4920921;28;114317;-70
2021/04/18 11:26:17;;;;;;;9.07;4.00;;;;;;;18.20;35.71;102174.41;4901519;28;124480;-69
2021/04/18 11:28:44;;;;;;;6.20;4.28;;;;;;;18.21;36.19;102171.59;4924027;28;124528;-69